Adriatic Id — VRFP6 — position and weather

sailwx.info

Track history (hours):
 
Tides and Currents Weather Stations Pressure Air Temp Water Temp Dewpoint Dewpoint Depression Visibility Wind Speed Wind Dir Waves Ship Positions

Adriatic Id

Last reported at 2015-Aug-22 07:14 UTC. Time now 2015-Aug-30 03:38 UTC.
Position N 26°08' E 119°35'.

Length 158 m; draft 8.9 m.

Type: Cargo ship. MMSI: 477559800.

Date/timePositionNaut miles runAvg speedWind from/ knotsBaromVisibWave heightAir tempDewpointWater temp
2015-Aug-22 07:14N 26°08' E 119°35'5 7.8
2015-Aug-22 06:33N 26°04' E 119°31'2 1.9
2015-Aug-22 05:33N 26°03' E 119°30'0 0.0
2015-Aug-22 04:33N 26°03' E 119°30'0 0.0
2015-Aug-22 03:27N 26°03' E 119°30'0 0.0
2015-Aug-22 02:27N 26°03' E 119°30'0 0.0
2015-Aug-22 01:33N 26°03' E 119°30'0 0.0
2015-Aug-22 00:33N 26°03' E 119°30'0 0.0
2015-Aug-21 23:33N 26°03' E 119°30'0 0.0
2015-Aug-21 22:33N 26°03' E 119°30'0 0.0
2015-Aug-21 21:27N 26°03' E 119°30'0 0.0
2015-Aug-21 20:33N 26°03' E 119°30'0 0.0
2015-Aug-21 19:33N 26°03' E 119°30'0 0.0
2015-Aug-21 18:33N 26°03' E 119°30'0 0.0
2015-Aug-21 17:33N 26°03' E 119°30'0 0.0
2015-Aug-21 16:33N 26°03' E 119°30'0 0.0
2015-Aug-21 15:27N 26°03' E 119°30'0 0.0
2015-Aug-21 14:33N 26°03' E 119°30'0 0.0
2015-Aug-21 13:21N 26°03' E 119°30'0 0.0
2015-Aug-21 12:15N 26°03' E 119°30'0 0.0
2015-Aug-21 11:32N 26°03' E 119°30'  
2015-Aug-16 23:33N 26°03' E 119°30'0 0.0
2015-Aug-16 22:33N 26°03' E 119°30'0 0.0
2015-Aug-16 21:33N 26°03' E 119°30'0 0.0
2015-Aug-16 20:33N 26°03' E 119°30'0 0.0
2015-Aug-16 19:21N 26°03' E 119°30'0 0.0
2015-Aug-16 17:09N 26°03' E 119°30'0 0.0
2015-Aug-16 14:27N 26°03' E 119°30'0 0.0
2015-Aug-16 13:27N 26°03' E 119°30'0 0.0
2015-Aug-16 12:33N 26°03' E 119°30'0 0.0
2015-Aug-16 11:15N 26°03' E 119°30'0 0.0
2015-Aug-16 09:15N 26°03' E 119°30'0 0.0
2015-Aug-16 08:33N 26°03' E 119°30'0 0.0
2015-Aug-16 07:33N 26°03' E 119°30'0 0.0
2015-Aug-16 06:33N 26°03' E 119°30'0 0.3
2015-Aug-16 05:33N 26°03' E 119°30'10 6.8
2015-Aug-16 04:04N 26°06' E 119°41'5 7.7
2015-Aug-16 03:25N 26°05' E 119°47'6 5.2
2015-Aug-16 02:11N 26°02' E 119°53'  
Track history (hours):
 
Tides and Currents Weather Stations Pressure Air Temp Water Temp Dewpoint Dewpoint Depression Visibility Wind Speed Wind Dir Waves Ship Positions

Adriatic Id

Last reported at 2015-Aug-22 07:14 UTC. Time now 2015-Aug-30 03:38 UTC.
Position N 26°08' E 119°35'.

Length 158 m; draft 8.9 m.

Type: Cargo ship. MMSI: 477559800.

Date/timePositionNaut miles runAvg speedWind from/ knotsBaromVisibWave heightAir tempDewpointWater temp
2015-Aug-22 07:14N 26°08' E 119°35'5 7.8
2015-Aug-22 06:33N 26°04' E 119°31'2 1.9
2015-Aug-22 05:33N 26°03' E 119°30'0 0.0
2015-Aug-22 04:33N 26°03' E 119°30'0 0.0
2015-Aug-22 03:27N 26°03' E 119°30'0 0.0
2015-Aug-22 02:27N 26°03' E 119°30'0 0.0
2015-Aug-22 01:33N 26°03' E 119°30'0 0.0
2015-Aug-22 00:33N 26°03' E 119°30'0 0.0
2015-Aug-21 23:33N 26°03' E 119°30'0 0.0
2015-Aug-21 22:33N 26°03' E 119°30'0 0.0
2015-Aug-21 21:27N 26°03' E 119°30'0 0.0
2015-Aug-21 20:33N 26°03' E 119°30'0 0.0
2015-Aug-21 19:33N 26°03' E 119°30'0 0.0
2015-Aug-21 18:33N 26°03' E 119°30'0 0.0
2015-Aug-21 17:33N 26°03' E 119°30'0 0.0
2015-Aug-21 16:33N 26°03' E 119°30'0 0.0
2015-Aug-21 15:27N 26°03' E 119°30'0 0.0
2015-Aug-21 14:33N 26°03' E 119°30'0 0.0
2015-Aug-21 13:21N 26°03' E 119°30'0 0.0
2015-Aug-21 12:15N 26°03' E 119°30'0 0.0
2015-Aug-21 11:32N 26°03' E 119°30'  
2015-Aug-16 23:33N 26°03' E 119°30'0 0.0
2015-Aug-16 22:33N 26°03' E 119°30'0 0.0
2015-Aug-16 21:33N 26°03' E 119°30'0 0.0
2015-Aug-16 20:33N 26°03' E 119°30'0 0.0
2015-Aug-16 19:21N 26°03' E 119°30'0 0.0
2015-Aug-16 17:09N 26°03' E 119°30'0 0.0
2015-Aug-16 14:27N 26°03' E 119°30'0 0.0
2015-Aug-16 13:27N 26°03' E 119°30'0 0.0
2015-Aug-16 12:33N 26°03' E 119°30'0 0.0
2015-Aug-16 11:15N 26°03' E 119°30'0 0.0
2015-Aug-16 09:15N 26°03' E 119°30'0 0.0
2015-Aug-16 08:33N 26°03' E 119°30'0 0.0
2015-Aug-16 07:33N 26°03' E 119°30'0 0.0
2015-Aug-16 06:33N 26°03' E 119°30'0 0.3
2015-Aug-16 05:33N 26°03' E 119°30'10 6.8
2015-Aug-16 04:04N 26°06' E 119°41'5 7.7
2015-Aug-16 03:25N 26°05' E 119°47'6 5.2
2015-Aug-16 02:11N 26°02' E 119°53'  

Dump ship's entire track history